PWSweather.com
Personal Weather Stations
Station Observations
WAREHAM1
West Wareham, MA 02576

West Wareham, MA 02576

Lat: 41.7961059, Lon: -70.775612

Elevation: 88

Station Type: Davis Vantage Vue

http://www.gateway2capecod.com

High Low Average
Temperature 46.0°F7.8°C 27.5°F-2.5°C 37.1°F2.8°C
Dew Point 34.3°F1.3°C 24.6°F-4.1°C 29.8°F-1.2°C
Winds 8.1 mph 13.0 kmh Calm Calm 3.0 mph SE4.8 kmh SE
Wind Gusts 21.9 mph35.2 kmh -- 8.0 mph12.9 kmh
Humidity 92% 54% 76%
Pressure 30.10 in1019.3 mb 29.76 in1007.8 mb -
Precipitation 0.00 in0.0 mm - -
Hour Temp Dew Point Humidity Winds Wind Gusts Pressure Precip Precip Rate Daily Precip Total
12:09 AM 30.0°F-1.1°C 25.7°F-3.5°C 84% Calm Calm -- 30.09 in1019.0 mb 0.00 in0.0 mm 0.00 in0.0 mm 0.00 in0.0 mm
12:19 AM 29.8°F-1.2°C 25.5°F-3.6°C 84% Calm Calm -- 30.10 in1019.3 mb 0.00 in0.0 mm 0.00 in0.0 mm 0.00 in0.0 mm
12:29 AM 29.7°F-1.3°C 25.7°F-3.5°C 85% Calm Calm -- 30.09 in1019.0 mb 0.00 in0.0 mm 0.00 in0.0 mm 0.00 in0.0 mm
12:39 AM 29.5°F-1.4°C 25.5°F-3.6°C 85% Calm Calm 0.9 mph1.4 kmh 30.09 in1019.0 mb 0.00 in0.0 mm 0.00 in0.0 mm 0.00 in0.0 mm
12:49 AM 28.9°F-1.7°C 25.0°F-3.9°C 85% Calm Calm -- 30.09 in1019.0 mb 0.00 in0.0 mm 0.00 in0.0 mm 0.00 in0.0 mm
12:59 AM 28.8°F-1.8°C 24.8°F-4.0°C 85% Calm Calm -- 30.09 in1019.0 mb 0.00 in0.0 mm 0.00 in0.0 mm 0.00 in0.0 mm
01:09 AM 28.6°F-1.9°C 25.2°F-3.8°C 87% Calm Calm -- 30.09 in1019.0 mb 0.00 in0.0 mm 0.00 in0.0 mm 0.00 in0.0 mm
01:19 AM 28.4°F-2.0°C 25.0°F-3.9°C 87% Calm Calm -- 30.09 in1019.0 mb 0.00 in0.0 mm 0.00 in0.0 mm 0.00 in0.0 mm
01:29 AM 28.6°F-1.9°C 25.5°F-3.6°C 88% Calm Calm -- 30.09 in1019.0 mb 0.00 in0.0 mm 0.00 in0.0 mm 0.00 in0.0 mm
01:39 AM 28.2°F-2.1°C 25.2°F-3.8°C 88% Calm Calm -- 30.09 in1019.0 mb 0.00 in0.0 mm 0.00 in0.0 mm 0.00 in0.0 mm
01:49 AM 28.6°F-1.9°C 25.5°F-3.6°C 88% Calm Calm -- 30.09 in1019.0 mb 0.00 in0.0 mm 0.00 in0.0 mm 0.00 in0.0 mm
01:59 AM 28.2°F-2.1°C 25.2°F-3.8°C 88% Calm Calm -- 30.08 in1018.6 mb 0.00 in0.0 mm 0.00 in0.0 mm 0.00 in0.0 mm
02:09 AM 28.4°F-2.0°C 25.3°F-3.7°C 88% Calm Calm -- 30.08 in1018.6 mb 0.00 in0.0 mm 0.00 in0.0 mm 0.00 in0.0 mm
02:19 AM 28.2°F-2.1°C 25.2°F-3.8°C 88% Calm Calm -- 30.08 in1018.6 mb 0.00 in0.0 mm 0.00 in0.0 mm 0.00 in0.0 mm
02:29 AM 28.0°F-2.2°C 24.6°F-4.1°C 87% Calm Calm -- 30.08 in1018.6 mb 0.00 in0.0 mm 0.00 in0.0 mm 0.00 in0.0 mm
02:39 AM 28.0°F-2.2°C 25.0°F-3.9°C 88% Calm Calm 0.9 mph1.4 kmh 30.08 in1018.6 mb 0.00 in0.0 mm 0.00 in0.0 mm 0.00 in0.0 mm
02:49 AM 27.9°F-2.3°C 24.8°F-4.0°C 88% Calm Calm -- 30.08 in1018.6 mb 0.00 in0.0 mm 0.00 in0.0 mm 0.00 in0.0 mm
02:59 AM 28.0°F-2.2°C 25.2°F-3.8°C 89% Calm Calm -- 30.08 in1018.6 mb 0.00 in0.0 mm 0.00 in0.0 mm 0.00 in0.0 mm
03:09 AM 28.0°F-2.2°C 25.0°F-3.9°C 88% Calm Calm -- 30.08 in1018.6 mb 0.00 in0.0 mm 0.00 in0.0 mm 0.00 in0.0 mm
03:19 AM 27.7°F-2.4°C 24.8°F-4.0°C 89% Calm Calm -- 30.08 in1018.6 mb 0.00 in0.0 mm 0.00 in0.0 mm 0.00 in0.0 mm
03:29 AM 27.7°F-2.4°C 24.8°F-4.0°C 89% Calm Calm 0.9 mph1.4 kmh 30.07 in1018.3 mb 0.00 in0.0 mm 0.00 in0.0 mm 0.00 in0.0 mm
03:39 AM 27.7°F-2.4°C 25.2°F-3.8°C 90% Calm Calm 0.9 mph1.4 kmh 30.07 in1018.3 mb 0.00 in0.0 mm 0.00 in0.0 mm 0.00 in0.0 mm
03:49 AM 27.5°F-2.5°C 25.0°F-3.9°C 90% Calm Calm 0.9 mph1.4 kmh 30.07 in1018.3 mb 0.00 in0.0 mm 0.00 in0.0 mm 0.00 in0.0 mm
03:59 AM 27.9°F-2.3°C 25.5°F-3.6°C 91% Calm Calm 0.9 mph1.4 kmh 30.07 in1018.3 mb 0.00 in0.0 mm 0.00 in0.0 mm 0.00 in0.0 mm
04:09 AM 27.9°F-2.3°C 25.5°F-3.6°C 91% Calm Calm 0.9 mph1.4 kmh 30.07 in1018.3 mb 0.00 in0.0 mm 0.00 in0.0 mm 0.00 in0.0 mm
04:19 AM 27.9°F-2.3°C 25.5°F-3.6°C 91% Calm Calm 0.9 mph1.4 kmh 30.07 in1018.3 mb 0.00 in0.0 mm 0.00 in0.0 mm 0.00 in0.0 mm
04:30 AM 28.0°F-2.2°C 25.5°F-3.6°C 90% Calm Calm -- 30.07 in1018.3 mb 0.00 in0.0 mm 0.00 in0.0 mm 0.00 in0.0 mm
04:40 AM 28.4°F-2.0°C 25.9°F-3.4°C 90% Calm Calm 0.9 mph1.4 kmh 30.07 in1018.3 mb 0.00 in0.0 mm 0.00 in0.0 mm 0.00 in0.0 mm
04:50 AM 28.6°F-1.9°C 25.7°F-3.5°C 89% Calm Calm 0.9 mph1.4 kmh 30.08 in1018.6 mb 0.00 in0.0 mm 0.00 in0.0 mm 0.00 in0.0 mm
05:00 AM 28.9°F-1.7°C 26.4°F-3.1°C 90% Calm Calm 0.9 mph1.4 kmh 30.07 in1018.3 mb 0.00 in0.0 mm 0.00 in0.0 mm 0.00 in0.0 mm
05:10 AM 28.8°F-1.8°C 25.9°F-3.4°C 89% Calm Calm 0.9 mph1.4 kmh 30.08 in1018.6 mb 0.00 in0.0 mm 0.00 in0.0 mm 0.00 in0.0 mm
05:20 AM 28.6°F-1.9°C 25.7°F-3.5°C 89% Calm Calm 0.9 mph1.4 kmh 30.07 in1018.3 mb 0.00 in0.0 mm 0.00 in0.0 mm 0.00 in0.0 mm
05:30 AM 28.9°F-1.7°C 26.4°F-3.1°C 90% Calm Calm 0.9 mph1.4 kmh 30.07 in1018.3 mb 0.00 in0.0 mm 0.00 in0.0 mm 0.00 in0.0 mm
05:40 AM 28.8°F-1.8°C 26.2°F-3.2°C 90% Calm Calm 0.9 mph1.4 kmh 30.06 in1017.9 mb 0.00 in0.0 mm 0.00 in0.0 mm 0.00 in0.0 mm
05:50 AM 28.8°F-1.8°C 26.2°F-3.2°C 90% Calm Calm 0.9 mph1.4 kmh 30.06 in1017.9 mb 0.00 in0.0 mm 0.00 in0.0 mm 0.00 in0.0 mm
06:00 AM 28.8°F-1.8°C 26.2°F-3.2°C 90% Calm Calm 0.9 mph1.4 kmh 30.05 in1017.6 mb 0.00 in0.0 mm 0.00 in0.0 mm 0.00 in0.0 mm
06:10 AM 28.6°F-1.9°C 26.1°F-3.3°C 90% Calm Calm 0.9 mph1.4 kmh 30.05 in1017.6 mb 0.00 in0.0 mm 0.00 in0.0 mm 0.00 in0.0 mm
06:20 AM 28.6°F-1.9°C 26.2°F-3.2°C 91% Calm Calm 0.9 mph1.4 kmh 30.05 in1017.6 mb 0.00 in0.0 mm 0.00 in0.0 mm 0.00 in0.0 mm
06:30 AM 28.9°F-1.7°C 26.6°F-3.0°C 91% Calm Calm 0.9 mph1.4 kmh 30.06 in1017.9 mb 0.00 in0.0 mm 0.00 in0.0 mm 0.00 in0.0 mm
06:40 AM 29.3°F-1.5°C 27.3°F-2.6°C 92% Calm Calm 1.0 mph1.6 kmh 30.06 in1017.9 mb 0.00 in0.0 mm 0.00 in0.0 mm 0.00 in0.0 mm
06:50 AM 30.0°F-1.1°C 27.7°F-2.4°C 91% Calm Calm 0.9 mph1.4 kmh 30.06 in1017.9 mb 0.00 in0.0 mm 0.00 in0.0 mm 0.00 in0.0 mm
07:00 AM 30.6°F-0.8°C 28.2°F-2.1°C 91% Calm Calm 0.9 mph1.4 kmh 30.06 in1017.9 mb 0.00 in0.0 mm 0.00 in0.0 mm 0.00 in0.0 mm
07:10 AM 31.6°F-0.2°C 29.1°F-1.6°C 90% Calm Calm 0.9 mph1.4 kmh 30.06 in1017.9 mb 0.00 in0.0 mm 0.00 in0.0 mm 0.00 in0.0 mm
07:20 AM 32.4°F0.2°C 29.5°F-1.4°C 89% Calm Calm -- 30.06 in1017.9 mb 0.00 in0.0 mm 0.00 in0.0 mm 0.00 in0.0 mm
07:30 AM 33.3°F0.7°C 30.0°F-1.1°C 88% Calm Calm 2.0 mph3.2 kmh 30.06 in1017.9 mb 0.00 in0.0 mm 0.00 in0.0 mm 0.00 in0.0 mm
07:40 AM 34.5°F1.4°C 31.1°F-0.5°C 87% Calm Calm 2.0 mph3.2 kmh 30.07 in1018.3 mb 0.00 in0.0 mm 0.00 in0.0 mm 0.00 in0.0 mm
07:50 AM 35.6°F2.0°C 32.2°F0.1°C 87% Calm Calm 0.9 mph1.4 kmh 30.07 in1018.3 mb 0.00 in0.0 mm 0.00 in0.0 mm 0.00 in0.0 mm
08:00 AM 36.9°F2.7°C 33.1°F0.6°C 86% Calm Calm 2.0 mph3.2 kmh 30.07 in1018.3 mb 0.00 in0.0 mm 0.00 in0.0 mm 0.00 in0.0 mm
08:10 AM 38.1°F3.4°C 33.4°F0.8°C 83% Calm Calm 0.9 mph1.4 kmh 30.07 in1018.3 mb 0.00 in0.0 mm 0.00 in0.0 mm 0.00 in0.0 mm
08:20 AM 39.0°F3.9°C 33.1°F0.6°C 79% 0.9 mph ESE1.4 kmh ESE 4.9 mph7.9 kmh 30.08 in1018.6 mb 0.00 in0.0 mm 0.00 in0.0 mm 0.00 in0.0 mm
08:30 AM 39.9°F4.4°C 33.3°F0.7°C 77% 0.9 mph SE1.4 kmh SE 4.0 mph6.4 kmh 30.08 in1018.6 mb 0.00 in0.0 mm 0.00 in0.0 mm 0.00 in0.0 mm
08:40 AM 40.6°F4.8°C 33.3°F0.7°C 75% 2.0 mph NE3.2 kmh NE 7.0 mph11.3 kmh 30.07 in1018.3 mb 0.00 in0.0 mm 0.00 in0.0 mm 0.00 in0.0 mm
08:50 AM 41.7°F5.4°C 33.4°F0.8°C 72% 2.9 mph NE4.7 kmh NE 11.0 mph17.7 kmh 30.07 in1018.3 mb 0.00 in0.0 mm 0.00 in0.0 mm 0.00 in0.0 mm
09:00 AM 42.1°F5.6°C 32.7°F0.4°C 69% 2.9 mph ESE4.7 kmh ESE 8.9 mph14.3 kmh 30.06 in1017.9 mb 0.00 in0.0 mm 0.00 in0.0 mm 0.00 in0.0 mm
09:10 AM 42.6°F5.9°C 32.4°F0.2°C 67% 2.9 mph SE4.7 kmh SE 8.1 mph13.0 kmh 30.06 in1017.9 mb 0.00 in0.0 mm 0.00 in0.0 mm 0.00 in0.0 mm
09:20 AM 41.5°F5.3°C 31.5°F-0.3°C 67% 2.9 mph E4.7 kmh E 8.1 mph13.0 kmh 30.06 in1017.9 mb 0.00 in0.0 mm 0.00 in0.0 mm 0.00 in0.0 mm
09:30 AM 41.9°F5.5°C 30.6°F-0.8°C 64% 2.9 mph SE4.7 kmh SE 6.0 mph9.7 kmh 30.06 in1017.9 mb 0.00 in0.0 mm 0.00 in0.0 mm 0.00 in0.0 mm
09:40 AM 42.6°F5.9°C 31.3°F-0.4°C 64% 2.9 mph SE4.7 kmh SE 8.1 mph13.0 kmh 30.06 in1017.9 mb 0.00 in0.0 mm 0.00 in0.0 mm 0.00 in0.0 mm
09:50 AM 42.3°F5.7°C 30.2°F-1.0°C 62% 2.9 mph ESE4.7 kmh ESE 6.9 mph11.1 kmh 30.06 in1017.9 mb 0.00 in0.0 mm 0.00 in0.0 mm 0.00 in0.0 mm
10:00 AM 42.6°F5.9°C 30.9°F-0.6°C 63% 4.0 mph ENE6.4 kmh ENE 8.1 mph13.0 kmh 30.06 in1017.9 mb 0.00 in0.0 mm 0.00 in0.0 mm 0.00 in0.0 mm
10:10 AM 42.8°F6.0°C 30.2°F-1.0°C 61% 4.0 mph NE6.4 kmh NE 11.0 mph17.7 kmh 30.06 in1017.9 mb 0.00 in0.0 mm 0.00 in0.0 mm 0.00 in0.0 mm
10:20 AM 43.3°F6.3°C 30.0°F-1.1°C 59% 2.0 mph NE3.2 kmh NE 8.9 mph14.3 kmh 30.06 in1017.9 mb 0.00 in0.0 mm 0.00 in0.0 mm 0.00 in0.0 mm
10:30 AM 43.9°F6.6°C 30.6°F-0.8°C 59% 2.9 mph ENE4.7 kmh ENE 12.1 mph19.5 kmh 30.05 in1017.6 mb 0.00 in0.0 mm 0.00 in0.0 mm 0.00 in0.0 mm
10:40 AM 44.4°F6.9°C 30.6°F-0.8°C 58% 2.0 mph ENE3.2 kmh ENE 11.0 mph17.7 kmh 30.05 in1017.6 mb 0.00 in0.0 mm 0.00 in0.0 mm 0.00 in0.0 mm
10:50 AM 44.6°F7.0°C 29.8°F-1.2°C 56% 2.9 mph E4.7 kmh E 10.1 mph16.3 kmh 30.05 in1017.6 mb 0.00 in0.0 mm 0.00 in0.0 mm 0.00 in0.0 mm
11:00 AM 43.9°F6.6°C 29.7°F-1.3°C 57% 2.9 mph E4.7 kmh E 12.1 mph19.5 kmh 30.05 in1017.6 mb 0.00 in0.0 mm 0.00 in0.0 mm 0.00 in0.0 mm
11:10 AM 43.5°F6.4°C 29.7°F-1.3°C 58% 2.9 mph ENE4.7 kmh ENE 8.9 mph14.3 kmh 30.05 in1017.6 mb 0.00 in0.0 mm 0.00 in0.0 mm 0.00 in0.0 mm
11:20 AM 43.3°F6.3°C 30.0°F-1.1°C 59% 4.0 mph ENE6.4 kmh ENE 8.9 mph14.3 kmh 30.05 in1017.6 mb 0.00 in0.0 mm 0.00 in0.0 mm 0.00 in0.0 mm
11:30 AM 43.2°F6.2°C 30.2°F-1.0°C 60% 2.9 mph NE4.7 kmh NE 8.9 mph14.3 kmh 30.04 in1017.3 mb 0.00 in0.0 mm 0.00 in0.0 mm 0.00 in0.0 mm
11:40 AM 44.4°F6.9°C 30.6°F-0.8°C 58% 2.9 mph NE4.7 kmh NE 6.9 mph11.1 kmh 30.04 in1017.3 mb 0.00 in0.0 mm 0.00 in0.0 mm 0.00 in0.0 mm
11:50 AM 45.3°F7.4°C 30.6°F-0.8°C 56% 2.0 mph NNE3.2 kmh NNE 8.1 mph13.0 kmh 30.03 in1016.9 mb 0.00 in0.0 mm 0.00 in0.0 mm 0.00 in0.0 mm
12:00 PM 45.1°F7.3°C 30.4°F-0.9°C 56% 4.0 mph ENE6.4 kmh ENE 9.0 mph14.5 kmh 30.02 in1016.6 mb 0.00 in0.0 mm 0.00 in0.0 mm 0.00 in0.0 mm
12:10 PM 46.0°F7.8°C 30.7°F-0.7°C 55% 4.0 mph NE6.4 kmh NE 10.1 mph16.3 kmh 30.02 in1016.6 mb 0.00 in0.0 mm 0.00 in0.0 mm 0.00 in0.0 mm
12:20 PM 45.7°F7.6°C 30.0°F-1.1°C 54% 4.9 mph ESE7.9 kmh ESE 12.1 mph19.5 kmh 30.02 in1016.6 mb 0.00 in0.0 mm 0.00 in0.0 mm 0.00 in0.0 mm
12:30 PM 45.3°F7.4°C 30.0°F-1.1°C 55% 2.9 mph ENE4.7 kmh ENE 8.9 mph14.3 kmh 30.02 in1016.6 mb 0.00 in0.0 mm 0.00 in0.0 mm 0.00 in0.0 mm
12:40 PM 45.0°F7.2°C 30.2°F-1.0°C 56% 4.0 mph SE6.4 kmh SE 10.1 mph16.3 kmh 30.02 in1016.6 mb 0.00 in0.0 mm 0.00 in0.0 mm 0.00 in0.0 mm
12:50 PM 44.2°F6.8°C 30.4°F-0.9°C 58% 4.9 mph NE7.9 kmh NE 13.0 mph20.9 kmh 30.02 in1016.6 mb 0.00 in0.0 mm 0.00 in0.0 mm 0.00 in0.0 mm
01:00 PM 43.9°F6.6°C 30.6°F-0.8°C 59% 2.9 mph E4.7 kmh E 8.9 mph14.3 kmh 30.01 in1016.3 mb 0.00 in0.0 mm 0.00 in0.0 mm 0.00 in0.0 mm
01:10 PM 43.5°F6.4°C 30.6°F-0.8°C 60% 2.0 mph ENE3.2 kmh ENE 6.0 mph9.7 kmh 30.01 in1016.3 mb 0.00 in0.0 mm 0.00 in0.0 mm 0.00 in0.0 mm
01:20 PM 43.0°F6.1°C 29.7°F-1.3°C 59% 4.0 mph E6.4 kmh E 12.1 mph19.5 kmh 30.01 in1016.3 mb 0.00 in0.0 mm 0.00 in0.0 mm 0.00 in0.0 mm
01:30 PM 42.8°F6.0°C 29.8°F-1.2°C 60% 2.9 mph ENE4.7 kmh ENE 11.0 mph17.7 kmh 30.01 in1016.3 mb 0.00 in0.0 mm 0.00 in0.0 mm 0.00 in0.0 mm
01:40 PM 42.8°F6.0°C 29.8°F-1.2°C 60% 2.9 mph ENE4.7 kmh ENE 8.1 mph13.0 kmh 30.00 in1015.9 mb 0.00 in0.0 mm 0.00 in0.0 mm 0.00 in0.0 mm
01:50 PM 43.0°F6.1°C 30.9°F-0.6°C 62% 2.9 mph ENE4.7 kmh ENE 13.0 mph20.9 kmh 30.00 in1015.9 mb 0.00 in0.0 mm 0.00 in0.0 mm 0.00 in0.0 mm
02:00 PM 42.8°F6.0°C 31.1°F-0.5°C 63% 4.0 mph ENE6.4 kmh ENE 8.9 mph14.3 kmh 29.99 in1015.6 mb 0.00 in0.0 mm 0.00 in0.0 mm 0.00 in0.0 mm
02:10 PM 43.0°F6.1°C 30.9°F-0.6°C 62% 4.0 mph SE6.4 kmh SE 15.0 mph24.1 kmh 29.99 in1015.6 mb 0.00 in0.0 mm 0.00 in0.0 mm 0.00 in0.0 mm
02:20 PM 42.8°F6.0°C 31.5°F-0.3°C 64% 4.0 mph SE6.4 kmh SE 15.0 mph24.1 kmh 29.98 in1015.2 mb 0.00 in0.0 mm 0.00 in0.0 mm 0.00 in0.0 mm
02:30 PM 42.4°F5.8°C 31.5°F-0.3°C 65% 4.0 mph ESE6.4 kmh ESE 10.1 mph16.3 kmh 29.98 in1015.2 mb 0.00 in0.0 mm 0.00 in0.0 mm 0.00 in0.0 mm
02:40 PM 42.1°F5.6°C 31.1°F-0.5°C 65% 4.0 mph ENE6.4 kmh ENE 13.0 mph20.9 kmh 29.97 in1014.9 mb 0.00 in0.0 mm 0.00 in0.0 mm 0.00 in0.0 mm
02:50 PM 42.4°F5.8°C 31.8°F-0.1°C 66% 2.9 mph NE4.7 kmh NE 18.0 mph29.0 kmh 29.97 in1014.9 mb 0.00 in0.0 mm 0.00 in0.0 mm 0.00 in0.0 mm
03:00 PM 42.3°F5.7°C 30.6°F-0.8°C 63% 4.9 mph NNE7.9 kmh NNE 13.0 mph20.9 kmh 29.97 in1014.9 mb 0.00 in0.0 mm 0.00 in0.0 mm 0.00 in0.0 mm
03:10 PM 42.3°F5.7°C 30.9°F-0.6°C 64% 4.0 mph ENE6.4 kmh ENE 15.0 mph24.1 kmh 29.96 in1014.6 mb 0.00 in0.0 mm 0.00 in0.0 mm 0.00 in0.0 mm
03:20 PM 42.1°F5.6°C 30.7°F-0.7°C 64% 4.0 mph NE6.4 kmh NE 13.0 mph20.9 kmh 29.96 in1014.6 mb 0.00 in0.0 mm 0.00 in0.0 mm 0.00 in0.0 mm
03:30 PM 41.9°F5.5°C 30.9°F-0.6°C 65% 4.9 mph NE7.9 kmh NE 11.0 mph17.7 kmh 29.96 in1014.6 mb 0.00 in0.0 mm 0.00 in0.0 mm 0.00 in0.0 mm
03:40 PM 41.9°F5.5°C 30.6°F-0.8°C 64% 4.0 mph ESE6.4 kmh ESE 11.0 mph17.7 kmh 29.97 in1014.9 mb 0.00 in0.0 mm 0.00 in0.0 mm 0.00 in0.0 mm
03:50 PM 41.7°F5.4°C 30.4°F-0.9°C 64% 4.0 mph E6.4 kmh E 13.0 mph20.9 kmh 29.97 in1014.9 mb 0.00 in0.0 mm 0.00 in0.0 mm 0.00 in0.0 mm
04:00 PM 41.7°F5.4°C 30.4°F-0.9°C 64% 2.9 mph E4.7 kmh E 11.0 mph17.7 kmh 29.96 in1014.6 mb 0.00 in0.0 mm 0.00 in0.0 mm 0.00 in0.0 mm
04:10 PM 41.5°F5.3°C 30.7°F-0.7°C 65% 2.9 mph ESE4.7 kmh ESE 12.1 mph19.5 kmh 29.96 in1014.6 mb 0.00 in0.0 mm 0.00 in0.0 mm 0.00 in0.0 mm
04:20 PM 41.2°F5.1°C 31.1°F-0.5°C 67% 4.9 mph E7.9 kmh E 12.1 mph19.5 kmh 29.96 in1014.6 mb 0.00 in0.0 mm 0.00 in0.0 mm 0.00 in0.0 mm
04:30 PM 40.8°F4.9°C 30.7°F-0.7°C 67% 4.0 mph ESE6.4 kmh ESE 13.0 mph20.9 kmh 29.96 in1014.6 mb 0.00 in0.0 mm 0.00 in0.0 mm 0.00 in0.0 mm
04:40 PM 40.8°F4.9°C 31.1°F-0.5°C 68% 2.9 mph E4.7 kmh E 12.1 mph19.5 kmh 29.96 in1014.6 mb 0.00 in0.0 mm 0.00 in0.0 mm 0.00 in0.0 mm
04:50 PM 40.6°F4.8°C 30.9°F-0.6°C 68% 4.0 mph ENE6.4 kmh ENE 12.1 mph19.5 kmh 29.95 in1014.2 mb 0.00 in0.0 mm 0.00 in0.0 mm 0.00 in0.0 mm
05:00 PM 40.5°F4.7°C 30.7°F-0.7°C 68% 2.9 mph ENE4.7 kmh ENE 12.1 mph19.5 kmh 29.96 in1014.6 mb 0.00 in0.0 mm 0.00 in0.0 mm 0.00 in0.0 mm
05:10 PM 40.3°F4.6°C 31.3°F-0.4°C 70% 4.0 mph ESE6.4 kmh ESE 11.0 mph17.7 kmh 29.96 in1014.6 mb 0.00 in0.0 mm 0.00 in0.0 mm 0.00 in0.0 mm
05:20 PM 40.3°F4.6°C 32.0°F0.0°C 72% 2.9 mph NE4.7 kmh NE 9.0 mph14.5 kmh 29.95 in1014.2 mb 0.00 in0.0 mm 0.00 in0.0 mm 0.00 in0.0 mm
05:30 PM 39.9°F4.4°C 32.0°F0.0°C 73% 4.0 mph NE6.4 kmh NE 13.0 mph20.9 kmh 29.95 in1014.2 mb 0.00 in0.0 mm 0.00 in0.0 mm 0.00 in0.0 mm
05:40 PM 39.7°F4.3°C 31.8°F-0.1°C 73% 4.0 mph NE6.4 kmh NE 12.1 mph19.5 kmh 29.94 in1013.9 mb 0.00 in0.0 mm 0.00 in0.0 mm 0.00 in0.0 mm
05:50 PM 39.7°F4.3°C 31.8°F-0.1°C 73% 4.0 mph NE6.4 kmh NE 14.1 mph22.7 kmh 29.94 in1013.9 mb 0.00 in0.0 mm 0.00 in0.0 mm 0.00 in0.0 mm
06:00 PM 39.6°F4.2°C 31.6°F-0.2°C 73% 2.9 mph NNE4.7 kmh NNE 13.0 mph20.9 kmh 29.93 in1013.5 mb 0.00 in0.0 mm 0.00 in0.0 mm 0.00 in0.0 mm
06:10 PM 39.4°F4.1°C 31.5°F-0.3°C 73% 4.0 mph ESE6.4 kmh ESE 13.0 mph20.9 kmh 29.93 in1013.5 mb 0.00 in0.0 mm 0.00 in0.0 mm 0.00 in0.0 mm
06:20 PM 39.4°F4.1°C 31.8°F-0.1°C 74% 4.9 mph N7.9 kmh N 13.0 mph20.9 kmh 29.93 in1013.5 mb 0.00 in0.0 mm 0.00 in0.0 mm 0.00 in0.0 mm
06:30 PM 39.2°F4.0°C 32.0°F0.0°C 75% 2.9 mph ENE4.7 kmh ENE 8.9 mph14.3 kmh 29.93 in1013.5 mb 0.00 in0.0 mm 0.00 in0.0 mm 0.00 in0.0 mm
06:40 PM 39.0°F3.9°C 32.2°F0.1°C 76% 4.0 mph ENE6.4 kmh ENE 12.1 mph19.5 kmh 29.92 in1013.2 mb 0.00 in0.0 mm 0.00 in0.0 mm 0.00 in0.0 mm
06:50 PM 39.0°F3.9°C 31.8°F-0.1°C 75% 4.0 mph NE6.4 kmh NE 13.0 mph20.9 kmh 29.92 in1013.2 mb 0.00 in0.0 mm 0.00 in0.0 mm 0.00 in0.0 mm
07:00 PM 39.0°F3.9°C 31.8°F-0.1°C 75% 4.0 mph NNE6.4 kmh NNE 13.0 mph20.9 kmh 29.92 in1013.2 mb 0.00 in0.0 mm 0.00 in0.0 mm 0.00 in0.0 mm
07:10 PM 39.0°F3.9°C 31.8°F-0.1°C 75% 4.9 mph NE7.9 kmh NE 13.0 mph20.9 kmh 29.92 in1013.2 mb 0.00 in0.0 mm 0.00 in0.0 mm 0.00 in0.0 mm
07:20 PM 39.0°F3.9°C 32.2°F0.1°C 76% 6.0 mph NNE9.7 kmh NNE 17.9 mph28.8 kmh 29.91 in1012.9 mb 0.00 in0.0 mm 0.00 in0.0 mm 0.00 in0.0 mm
07:30 PM 39.0°F3.9°C 32.2°F0.1°C 76% 6.0 mph NE9.7 kmh NE 15.0 mph24.1 kmh 29.91 in1012.9 mb 0.00 in0.0 mm 0.00 in0.0 mm 0.00 in0.0 mm
07:40 PM 38.8°F3.8°C 31.3°F-0.4°C 74% 4.9 mph ENE7.9 kmh ENE 15.0 mph24.1 kmh 29.91 in1012.9 mb 0.00 in0.0 mm 0.00 in0.0 mm 0.00 in0.0 mm
07:50 PM 38.8°F3.8°C 31.3°F-0.4°C 74% 4.9 mph ENE7.9 kmh ENE 14.1 mph22.7 kmh 29.92 in1013.2 mb 0.00 in0.0 mm 0.00 in0.0 mm 0.00 in0.0 mm
08:00 PM 38.8°F3.8°C 31.6°F-0.2°C 75% 4.9 mph E7.9 kmh E 12.1 mph19.5 kmh 29.91 in1012.9 mb 0.00 in0.0 mm 0.00 in0.0 mm 0.00 in0.0 mm
08:10 PM 38.8°F3.8°C 31.3°F-0.4°C 74% 6.0 mph ENE9.7 kmh ENE 17.0 mph27.4 kmh 29.91 in1012.9 mb 0.00 in0.0 mm 0.00 in0.0 mm 0.00 in0.0 mm
08:20 PM 38.8°F3.8°C 31.3°F-0.4°C 74% 6.0 mph NE9.7 kmh NE 20.0 mph32.2 kmh 29.91 in1012.9 mb 0.00 in0.0 mm 0.00 in0.0 mm 0.00 in0.0 mm
08:30 PM 38.7°F3.7°C 31.8°F-0.1°C 76% 8.1 mph ENE13.0 kmh ENE 21.9 mph35.2 kmh 29.90 in1012.5 mb 0.00 in0.0 mm 0.00 in0.0 mm 0.00 in0.0 mm
08:40 PM 38.7°F3.7°C 31.8°F-0.1°C 76% 6.9 mph ENE11.1 kmh ENE 19.0 mph30.6 kmh 29.89 in1012.2 mb 0.00 in0.0 mm 0.00 in0.0 mm 0.00 in0.0 mm
08:50 PM 38.7°F3.7°C 31.8°F-0.1°C 76% 6.9 mph E11.1 kmh E 14.1 mph22.7 kmh 29.89 in1012.2 mb 0.00 in0.0 mm 0.00 in0.0 mm 0.00 in0.0 mm
09:00 PM 38.7°F3.7°C 31.8°F-0.1°C 76% 6.0 mph E9.7 kmh E 17.0 mph27.4 kmh 29.88 in1011.9 mb 0.00 in0.0 mm 0.00 in0.0 mm 0.00 in0.0 mm
09:10 PM 38.5°F3.6°C 31.8°F-0.1°C 77% 6.9 mph E11.1 kmh E 19.0 mph30.6 kmh 29.87 in1011.5 mb 0.00 in0.0 mm 0.00 in0.0 mm 0.00 in0.0 mm
09:20 PM 38.5°F3.6°C 31.8°F-0.1°C 77% 4.9 mph ENE7.9 kmh ENE 13.0 mph20.9 kmh 29.86 in1011.2 mb 0.00 in0.0 mm 0.00 in0.0 mm 0.00 in0.0 mm
09:30 PM 38.5°F3.6°C 32.2°F0.1°C 78% 4.9 mph NE7.9 kmh NE 17.0 mph27.4 kmh 29.85 in1010.8 mb 0.00 in0.0 mm 0.00 in0.0 mm 0.00 in0.0 mm
09:40 PM 38.5°F3.6°C 32.2°F0.1°C 78% 6.9 mph E11.1 kmh E 16.1 mph25.9 kmh 29.85 in1010.8 mb 0.00 in0.0 mm 0.00 in0.0 mm 0.00 in0.0 mm
09:50 PM 38.5°F3.6°C 32.5°F0.3°C 79% 4.9 mph SE7.9 kmh SE 15.0 mph24.1 kmh 29.85 in1010.8 mb 0.00 in0.0 mm 0.00 in0.0 mm 0.00 in0.0 mm
10:00 PM 38.7°F3.7°C 32.7°F0.4°C 79% 4.9 mph NE7.9 kmh NE 14.1 mph22.7 kmh 29.85 in1010.8 mb 0.00 in0.0 mm 0.00 in0.0 mm 0.00 in0.0 mm
10:10 PM 38.7°F3.7°C 32.7°F0.4°C 79% 4.9 mph NNE7.9 kmh NNE 17.0 mph27.4 kmh 29.84 in1010.5 mb 0.00 in0.0 mm 0.00 in0.0 mm 0.00 in0.0 mm
10:20 PM 38.7°F3.7°C 33.1°F0.6°C 80% 4.9 mph E7.9 kmh E 15.0 mph24.1 kmh 29.83 in1010.2 mb 0.00 in0.0 mm 0.00 in0.0 mm 0.00 in0.0 mm
10:30 PM 38.7°F3.7°C 33.1°F0.6°C 80% 6.0 mph N9.7 kmh N 16.1 mph25.9 kmh 29.82 in1009.8 mb 0.00 in0.0 mm 0.00 in0.0 mm 0.00 in0.0 mm
10:40 PM 38.8°F3.8°C 33.4°F0.8°C 81% 6.0 mph ENE9.7 kmh ENE 16.1 mph25.9 kmh 29.80 in1009.1 mb 0.00 in0.0 mm 0.00 in0.0 mm 0.00 in0.0 mm
10:50 PM 38.8°F3.8°C 33.3°F0.7°C 80% 4.9 mph E7.9 kmh E 13.0 mph20.9 kmh 29.80 in1009.1 mb 0.00 in0.0 mm 0.00 in0.0 mm 0.00 in0.0 mm
11:00 PM 38.8°F3.8°C 33.4°F0.8°C 81% 6.0 mph ENE9.7 kmh ENE 13.0 mph20.9 kmh 29.79 in1008.8 mb 0.00 in0.0 mm 0.00 in0.0 mm 0.00 in0.0 mm
11:10 PM 39.0°F3.9°C 34.0°F1.1°C 82% 4.9 mph E7.9 kmh E 17.0 mph27.4 kmh 29.78 in1008.5 mb 0.00 in0.0 mm 0.00 in0.0 mm 0.00 in0.0 mm
11:20 PM 39.0°F3.9°C 33.6°F0.9°C 81% 6.0 mph N9.7 kmh N 17.0 mph27.4 kmh 29.78 in1008.5 mb 0.00 in0.0 mm 0.00 in0.0 mm 0.00 in0.0 mm
11:30 PM 39.0°F3.9°C 33.6°F0.9°C 81% 4.9 mph NE7.9 kmh NE 15.0 mph24.1 kmh 29.77 in1008.1 mb 0.00 in0.0 mm 0.00 in0.0 mm 0.00 in0.0 mm
11:40 PM 38.7°F3.7°C 34.2°F1.2°C 84% 4.9 mph NE7.9 kmh NE 15.0 mph24.1 kmh 29.77 in1008.1 mb 0.00 in0.0 mm 0.00 in0.0 mm 0.00 in0.0 mm
11:50 PM 38.1°F3.4°C 34.3°F1.3°C 86% 4.0 mph SE6.4 kmh SE 11.0 mph17.7 kmh 29.76 in1007.8 mb 0.00 in0.0 mm 0.00 in0.0 mm 0.00 in0.0 mm